createdAt,value
2022-10-08T00:00:36.921Z,70.02441406
2022-10-08T00:01:36.717Z,70.06640625
2022-10-08T00:03:32.424Z,69.95898438
2022-10-08T00:04:30.779Z,70.10253906
2022-10-08T00:05:34.124Z,70.22265625
2022-10-08T00:06:27.063Z,70.25292969
2022-10-08T00:07:27.905Z,70.27050781
2022-10-08T00:08:23.525Z,69.80664063
2022-10-08T00:09:25.187Z,70.32421875
2022-10-08T00:10:19.518Z,70.42089844
2022-10-08T00:11:21.681Z,69.93652344
2022-10-08T00:13:18.360Z,70.42480469
2022-10-08T00:14:11.033Z,70.57128906
2022-10-08T00:15:12.815Z,70.53808594
2022-10-08T00:16:24.248Z,70.50390625
2022-10-08T00:18:21.726Z,70.30273438
2022-10-08T00:19:21.211Z,70.37988281
2022-10-08T00:20:19.375Z,70.44726563
2022-10-08T00:21:22.607Z,70.28808594
2022-10-08T00:22:20.798Z,70.33496094
2022-10-08T00:23:19.628Z,70.30371094
2022-10-08T00:24:14.959Z,69.92285156
2022-10-08T00:25:18.497Z,70.13671875
2022-10-08T00:26:13.156Z,70.12402344
2022-10-08T00:27:12.281Z,69.80566406
2022-10-08T00:28:10.196Z,70.39648438
2022-10-08T00:29:07.341Z,70.23339844
2022-10-08T00:30:09.776Z,70.05273438
2022-10-08T00:31:05.255Z,70.32324219
2022-10-08T00:32:07.050Z,70.07714844
2022-10-08T00:33:03.366Z,70.21191406
2022-10-08T00:34:03.518Z,70.25195313
2022-10-08T00:35:05.340Z,70.18652344
2022-10-08T00:36:04.417Z,70.28515625
2022-10-08T00:37:33.394Z,70.4375
2022-10-08T00:38:13.089Z,70.20703125
2022-10-08T00:39:13.630Z,70.16894531
2022-10-08T00:40:13.654Z,70.05957031
2022-10-08T00:41:08.225Z,69.89746094
2022-10-08T00:42:07.965Z,70.07617188
2022-10-08T00:43:03.150Z,69.83789063
2022-10-08T00:44:09.434Z,70.09277344
2022-10-08T00:45:05.223Z,70.0703125
2022-10-08T00:46:10.697Z,70.08007813
2022-10-08T00:47:06.095Z,69.8359375
2022-10-08T00:48:06.826Z,70.35449219
2022-10-08T00:49:08.578Z,70.30761719
2022-10-08T00:50:10.552Z,70.44824219
2022-10-08T00:51:08.939Z,70.29101563
2022-10-08T00:52:04.311Z,70.3515625
2022-10-08T00:53:04.032Z,70.22753906
2022-10-08T00:53:59.263Z,70.2265625
2022-10-08T00:55:08.958Z,69.99511719
2022-10-08T00:56:04.273Z,69.96777344
2022-10-08T00:57:09.569Z,70.34179688
2022-10-08T00:58:03.748Z,69.82128906
2022-10-08T00:59:01.177Z,69.70019531
2022-10-08T01:00:01.678Z,69.86425781
2022-10-08T01:01:02.287Z,70.08691406
2022-10-08T01:02:03.405Z,70.30371094
2022-10-08T01:02:58.426Z,70.2421875
2022-10-08T01:04:00.863Z,70.28710938
2022-10-08T01:04:53.423Z,70.30761719
2022-10-08T01:06:02.530Z,70.46386719
2022-10-08T01:08:00.740Z,70.13574219
2022-10-08T01:09:04.421Z,70.20605469
2022-10-08T01:09:57.748Z,70.61132813
2022-10-08T01:10:59.047Z,70.546875
2022-10-08T01:12:56.736Z,69.95117188
2022-10-08T01:13:51.987Z,70.35644531
2022-10-08T01:14:55.515Z,70.32128906
2022-10-08T01:15:48.018Z,70.62988281
2022-10-08T01:17:42.400Z,70.27050781
2022-10-08T01:18:43.178Z,70.30664063
2022-10-08T01:19:41.379Z,70.54296875
2022-10-08T01:20:39.687Z,70.515625
2022-10-08T01:21:39.318Z,70.84375
2022-10-08T01:23:23.757Z,70.45703125
2022-10-08T01:24:05.542Z,70.42578125
2022-10-08T01:25:02.405Z,70.16308594
2022-10-08T01:26:02.323Z,70.07128906
2022-10-08T01:27:57.121Z,70.59179688
2022-10-08T01:28:56.176Z,70.72753906
2022-10-08T01:29:56.548Z,70.84667969
2022-10-08T01:30:51.892Z,70.80175781
2022-10-08T01:31:51.270Z,70.93261719
2022-10-08T01:32:47.055Z,70.80566406
2022-10-08T01:33:46.924Z,70.71289063
2022-10-08T01:34:45.081Z,70.828125
2022-10-08T01:35:42.424Z,71.14453125
2022-10-08T01:36:42.588Z,71.02636719
2022-10-08T01:37:37.704Z,70.78320313
2022-10-08T01:38:39.564Z,70.80371094
2022-10-08T01:39:32.880Z,71.1328125
2022-10-08T01:40:31.699Z,71.13183594
2022-10-08T01:41:29.072Z,71.09960938
2022-10-08T01:42:28.181Z,71.35644531
2022-10-08T01:43:23.223Z,71.2890625
2022-10-08T01:44:25.054Z,71.23339844
2022-10-08T01:45:16.779Z,71.25292969
2022-10-08T01:46:19.406Z,71.35351563
2022-10-08T01:48:15.271Z,71.01269531
2022-10-08T01:49:15.502Z,71.13574219
2022-10-08T01:50:18.238Z,71.00292969
2022-10-08T01:52:10.331Z,71.18554688
2022-10-08T01:53:27.691Z,70.81738281
2022-10-08T01:54:29.175Z,70.421875
2022-10-08T01:55:24.281Z,70.49804688
2022-10-08T01:56:30.284Z,70.58398438
2022-10-08T01:58:25.693Z,70.765625
2022-10-08T01:59:22.453Z,70.96386719
2022-10-08T02:00:25.267Z,71.06054688
2022-10-08T02:01:27.087Z,70.98242188
2022-10-08T02:02:30.072Z,71.27441406
2022-10-08T02:03:29.712Z,71.24316406
2022-10-08T02:04:34.752Z,71.1484375
2022-10-08T02:05:30.179Z,71.59570313
2022-10-08T02:06:32.010Z,71.10449219
2022-10-08T02:07:37.568Z,71.53125
2022-10-08T02:08:33.436Z,71.51757813
2022-10-08T02:09:38.685Z,71.35058594
2022-10-08T02:10:33.746Z,71.34863281
2022-10-08T02:11:33.985Z,71.47265625
2022-10-08T02:12:32.943Z,71.53710938
2022-10-08T02:13:32.189Z,71.65234375
2022-10-08T02:14:34.091Z,71.26660156
2022-10-08T02:15:44.523Z,71.72851563
2022-10-08T02:16:39.139Z,71.95898438
2022-10-08T02:18:38.417Z,71.92480469
2022-10-08T02:19:38.866Z,72.01074219
2022-10-08T02:20:38.085Z,72.16894531
2022-10-08T02:21:37.678Z,72.20214844
2022-10-08T02:23:40.537Z,71.875
2022-10-08T02:24:43.626Z,71.66113281
2022-10-08T02:25:39.184Z,71.35449219
2022-10-08T02:26:40.273Z,71.26367188
2022-10-08T02:27:35.696Z,71.43359375
2022-10-08T02:28:38.014Z,71.16992188
2022-10-08T02:29:33.420Z,71.76269531
2022-10-08T02:30:33.180Z,71.70898438
2022-10-08T02:31:29.258Z,72.00976563
2022-10-08T02:32:30.986Z,72.10253906
2022-10-08T02:34:08.707Z,71.75390625
2022-10-08T02:35:55.783Z,71.06933594
2022-10-08T02:36:44.221Z,70.82128906
2022-10-08T02:37:42.641Z,70.92089844
2022-10-08T02:38:42.166Z,71.05175781
2022-10-08T02:39:37.709Z,70.77636719
2022-10-08T02:40:39.066Z,71.03320313
2022-10-08T02:41:34.321Z,71.22851563
2022-10-08T02:42:36.752Z,71.37890625
2022-10-08T02:43:35.857Z,71.34667969
2022-10-08T02:44:35.571Z,71.42382813
2022-10-08T02:45:32.632Z,71.84863281
2022-10-08T02:46:33.783Z,71.92285156
2022-10-08T02:48:33.354Z,72.02441406
2022-10-08T02:49:24.975Z,71.9921875
2022-10-08T02:50:23.467Z,71.9921875
2022-10-08T02:51:29.395Z,72.06933594
2022-10-08T02:53:28.785Z,72.359375
2022-10-08T02:54:21.106Z,72.62109375
2022-10-08T02:55:25.613Z,72.51660156
2022-10-08T02:56:27.573Z,72.49707031
2022-10-08T02:57:22.930Z,72.359375
2022-10-08T02:58:39.959Z,72.53710938
2022-10-08T02:59:32.227Z,72.75976563
2022-10-08T03:00:33.770Z,72.61621094
2022-10-08T03:01:26.541Z,72.51660156
2022-10-08T03:02:28.242Z,72.95703125
2022-10-08T03:03:29.582Z,72.78710938
2022-10-08T03:04:21.261Z,72.8125
2022-10-08T03:05:28.954Z,72.80078125
2022-10-08T03:06:32.164Z,73.15332031
2022-10-08T03:07:24.213Z,73.98828125
2022-10-08T03:08:26.669Z,74.67675781
2022-10-08T03:09:20.922Z,75.15136719
2022-10-08T03:10:21.572Z,75.38476563
2022-10-08T03:11:16.462Z,75.44921875
2022-10-08T03:13:13.079Z,76.30859375
2022-10-08T03:14:59.919Z,76.06738281
2022-10-08T03:15:26.022Z,75.6875
2022-10-08T03:16:23.465Z,75.63867188
2022-10-08T03:17:24.722Z,76.15917969
2022-10-08T03:18:23.923Z,76.2265625
2022-10-08T03:19:23.167Z,76.28613281
2022-10-08T03:20:20.976Z,76.08105469
2022-10-08T03:21:21.507Z,75.453125
2022-10-08T03:23:17.648Z,76.68652344
2022-10-08T03:24:16.633Z,77.20507813
2022-10-08T03:25:16.136Z,76.9921875
2022-10-08T03:26:11.313Z,77.20996094
2022-10-08T03:28:20.238Z,77.17675781
2022-10-08T03:29:22.032Z,77.43164063
2022-10-08T03:30:28.783Z,77.67089844
2022-10-08T03:31:24.217Z,77.58886719
2022-10-08T03:33:31.023Z,78.87695313
2022-10-08T03:34:22.496Z,78.82226563
2022-10-08T03:35:28.319Z,79.10742188
2022-10-08T03:36:28.077Z,78.36328125
2022-10-08T03:38:31.159Z,79.38183594
2022-10-08T03:39:29.774Z,79.39453125
2022-10-08T03:40:59.896Z,79.55957031
2022-10-08T03:41:38.598Z,79.5390625
2022-10-08T03:43:41.929Z,79.32128906
2022-10-08T03:44:37.295Z,79.22460938
2022-10-08T03:45:38.048Z,79.23632813
2022-10-08T03:46:34.313Z,79.0625
2022-10-08T03:47:36.722Z,79.57421875
2022-10-08T03:48:34.785Z,79.76464844
2022-10-08T03:49:35.196Z,79.89648438
2022-10-08T03:50:30.516Z,80.06640625
2022-10-08T03:51:34.784Z,79.89648438
2022-10-08T03:53:33.189Z,80.07226563
2022-10-08T03:54:37.921Z,80.06933594
2022-10-08T03:55:31.819Z,80.12695313
2022-10-08T03:55:45.387Z,79.98925781
2022-10-08T03:56:45.318Z,79.87402344
2022-10-08T03:57:47.437Z,79.75
2022-10-08T03:58:43.823Z,80.00683594
2022-10-08T03:59:43.668Z,80.23730469
2022-10-08T04:00:41.826Z,80.046875
2022-10-08T04:01:41.249Z,80.14648438
2022-10-08T04:03:42.884Z,80.66894531
2022-10-08T04:04:40.100Z,80.70410156
2022-10-08T04:05:39.688Z,80.77929688
2022-10-08T04:06:35.953Z,80.62207031
2022-10-08T04:08:45.362Z,80.96386719
2022-10-08T04:09:43.321Z,80.94726563
2022-10-08T04:10:43.103Z,81.08691406
2022-10-08T04:11:40.385Z,81.01757813
2022-10-08T04:13:41.438Z,81.203125
2022-10-08T04:15:25.069Z,81.30664063
2022-10-08T04:16:07.050Z,80.88964844
2022-10-08T04:17:11.025Z,80.85351563
2022-10-08T04:18:10.138Z,80.93945313
2022-10-08T04:19:09.099Z,80.95898438
2022-10-08T04:20:08.694Z,81.08691406
2022-10-08T04:21:07.117Z,81.3125
2022-10-08T04:23:02.189Z,81.35058594
2022-10-08T04:24:04.506Z,81.41796875
2022-10-08T04:25:03.020Z,81.48535156
2022-10-08T04:26:05.121Z,81.53613281
2022-10-08T04:28:00.542Z,81.62304688
2022-10-08T04:29:02.304Z,81.61132813
2022-10-08T04:29:54.032Z,81.76660156
2022-10-08T04:30:53.557Z,81.64648438
2022-10-08T04:31:49.818Z,81.95898438
2022-10-08T04:32:52.753Z,81.578125
2022-10-08T04:33:58.248Z,81.74414063
2022-10-08T04:34:56.239Z,81.79882813
2022-10-08T04:36:00.141Z,81.88867188
2022-10-08T04:37:53.011Z,81.953125
2022-10-08T04:38:49.218Z,82.29199219
2022-10-08T04:39:53.768Z,82.35742188
2022-10-08T04:40:56.246Z,82.16992188
2022-10-08T04:41:56.312Z,82.31542969
2022-10-08T04:42:53.095Z,82.40527344
2022-10-08T04:43:50.744Z,82.88769531
2022-10-08T04:44:51.555Z,82.56835938
2022-10-08T04:45:47.060Z,82.89941406
2022-10-08T04:48:26.661Z,82.15722656
2022-10-08T04:49:10.258Z,82.08300781
2022-10-08T04:50:12.139Z,82.23339844
2022-10-08T04:51:29.747Z,81.73339844
2022-10-08T04:53:29.836Z,82.77246094
2022-10-08T04:54:34.373Z,82.8125
2022-10-08T04:55:30.755Z,82.8125
2022-10-08T04:56:45.017Z,82.54003906
2022-10-08T04:58:43.014Z,83.1484375
2022-10-08T04:59:59.449Z,83.21191406
2022-10-08T05:00:13.077Z,83.21191406
2022-10-08T05:00:16.624Z,83.21191406
2022-10-08T05:00:43.280Z,83.09375
2022-10-08T05:01:47.403Z,82.97558594
2022-10-08T05:03:50.215Z,83.05273438
2022-10-08T05:04:51.145Z,83.29882813
2022-10-08T05:05:55.861Z,83.28613281
2022-10-08T05:07:53.139Z,83.59667969
2022-10-08T05:08:52.235Z,83.37988281
2022-10-08T05:09:53.487Z,83.36914063
2022-10-08T05:10:51.150Z,83.40234375
2022-10-08T05:13:01.064Z,83.63671875
2022-10-08T05:13:55.763Z,83.703125
2022-10-08T05:15:00.553Z,83.55761719
2022-10-08T05:15:55.053Z,83.78320313
2022-10-08T05:17:56.072Z,83.64941406
2022-10-08T05:19:01.440Z,83.52441406
2022-10-08T05:19:55.787Z,83.72753906
2022-10-08T05:21:02.866Z,83.95214844
2022-10-08T05:23:08.518Z,83.73925781
2022-10-08T05:24:06.177Z,84.09765625
2022-10-08T05:25:12.305Z,84.0703125
2022-10-08T05:26:06.225Z,83.91796875
2022-10-08T05:27:07.885Z,83.96679688
2022-10-08T05:28:07.331Z,83.9296875
2022-10-08T05:29:09.546Z,84.12011719
2022-10-08T05:30:06.028Z,84.01953125
2022-10-08T05:31:08.861Z,83.98730469
2022-10-08T05:33:07.429Z,84.29882813
2022-10-08T05:34:08.544Z,84.18359375
2022-10-08T05:35:07.215Z,84.09375
2022-10-08T05:36:12.168Z,84.51269531
2022-10-08T05:37:08.795Z,84.34667969
2022-10-08T05:38:09.979Z,84.52539063
2022-10-08T05:39:08.051Z,84.55273438
2022-10-08T05:40:09.346Z,84.37207031
2022-10-08T05:42:02.526Z,84.1171875
2022-10-08T05:42:44.897Z,83.84375
2022-10-08T05:43:45.927Z,83.89355469
2022-10-08T05:44:46.920Z,83.75195313
2022-10-08T05:45:43.873Z,83.74804688
2022-10-08T05:47:49.295Z,83.76855469
2022-10-08T05:48:46.223Z,83.77832031
2022-10-08T05:49:50.238Z,83.73535156
2022-10-08T05:50:47.212Z,83.76171875
2022-10-08T05:51:48.912Z,83.90429688
2022-10-08T05:52:49.293Z,83.92871094
2022-10-08T05:53:45.281Z,83.90917969
2022-10-08T05:54:48.887Z,83.90917969
2022-10-08T05:55:49.210Z,83.98828125
2022-10-08T05:56:53.479Z,84.15917969
2022-10-08T05:57:52.912Z,84.15136719
2022-10-08T05:58:50.114Z,83.78515625
2022-10-08T05:59:52.839Z,84.28613281
2022-10-08T06:00:47.330Z,83.875
2022-10-08T06:02:46.880Z,83.921875
2022-10-08T06:03:47.666Z,83.88769531
2022-10-08T06:04:44.757Z,83.81347656
2022-10-08T06:05:45.117Z,83.85742188
2022-10-08T06:06:47.982Z,84.01464844
2022-10-08T06:07:49.702Z,84.26757813
2022-10-08T06:08:47.700Z,84.40136719
2022-10-08T06:09:49.823Z,84.12890625
2022-10-08T06:10:48.272Z,84.23339844
2022-10-08T06:12:52.872Z,84.17773438
2022-10-08T06:13:54.631Z,84.34375
2022-10-08T06:14:51.200Z,84.42089844
2022-10-08T06:15:55.920Z,84.28613281
2022-10-08T06:16:56.147Z,84.390625
2022-10-08T06:17:50.920Z,84.36230469
2022-10-08T06:18:51.844Z,84.11523438
2022-10-08T06:19:48.884Z,84.01464844
2022-10-08T06:20:53.438Z,84.29296875
2022-10-08T06:21:52.516Z,84.18261719
2022-10-08T06:22:59.482Z,84.34765625
2022-10-08T06:23:53.451Z,84.41503906
2022-10-08T06:24:56.468Z,84.37304688
2022-10-08T06:25:56.043Z,84.35058594
2022-10-08T06:28:00.691Z,84.44042969
2022-10-08T06:28:59.423Z,84.51367188
2022-10-08T06:29:59.168Z,84.33398438
2022-10-08T06:31:43.357Z,84.21191406
2022-10-08T06:32:26.207Z,84.22460938
2022-10-08T06:33:23.786Z,84.03125
2022-10-08T06:34:23.240Z,84.1640625
2022-10-08T06:35:20.212Z,84.06445313
2022-10-08T06:36:20.296Z,84.08496094
2022-10-08T06:37:14.795Z,84.08398438
2022-10-08T06:38:14.445Z,84.18066406
2022-10-08T06:39:10.098Z,84.078125
2022-10-08T06:40:09.385Z,84.28027344
2022-10-08T06:41:05.708Z,84.3125
2022-10-08T06:42:09.664Z,84.49316406
2022-10-08T06:43:04.209Z,84.68066406
2022-10-08T06:44:03.390Z,84.42285156
2022-10-08T06:45:01.960Z,84.53320313
2022-10-08T06:45:59.106Z,84.484375
2022-10-08T06:47:56.728Z,84.61425781
2022-10-08T06:48:54.085Z,84.56054688
2022-10-08T06:49:54.592Z,84.80566406
2022-10-08T06:50:50.925Z,84.58496094
2022-10-08T06:51:50.198Z,84.76171875
2022-10-08T06:52:46.645Z,84.44433594
2022-10-08T06:53:48.930Z,84.68164063
2022-10-08T06:54:44.943Z,84.63476563
2022-10-08T06:55:44.583Z,84.37988281
2022-10-08T06:56:39.869Z,84.22363281
2022-10-08T06:58:38.518Z,84.24023438
2022-10-08T06:59:31.593Z,84.37207031
2022-10-08T07:00:33.366Z,84.42871094
2022-10-08T07:01:31.798Z,84.04882813
2022-10-08T07:01:33.739Z,84.04882813
2022-10-08T07:03:22.205Z,84.55761719
2022-10-08T07:04:27.226Z,84.42285156
2022-10-08T07:05:23.429Z,84.57128906
2022-10-08T07:06:23.926Z,84.38964844
2022-10-08T07:08:19.304Z,84.49121094
2022-10-08T07:10:11.226Z,84.43945313
2022-10-08T07:11:13.538Z,84.45410156
2022-10-08T07:13:05.875Z,84.58300781
2022-10-08T07:14:00.397Z,84.39257813
2022-10-08T07:15:00.558Z,84.47265625
2022-10-08T07:15:55.919Z,84.54003906
2022-10-08T07:16:59.078Z,84.69726563
2022-10-08T07:17:51.938Z,84.65332031
2022-10-08T07:18:51.139Z,84.45507813
2022-10-08T07:19:51.922Z,84.49121094
2022-10-08T07:20:46.625Z,84.4921875
2022-10-08T07:21:47.643Z,84.46386719
2022-10-08T07:22:43.093Z,84.48535156
2022-10-08T07:23:43.737Z,84.15234375
2022-10-08T07:24:38.328Z,84.109375
2022-10-08T07:25:38.009Z,84.07714844
2022-10-08T07:26:36.307Z,84.00976563
2022-10-08T07:27:44.123Z,84.20117188
2022-10-08T07:27:45.044Z,84.20117188
2022-10-08T07:28:37.963Z,84.359375
2022-10-08T07:29:33.192Z,84.24316406
2022-10-08T07:30:34.769Z,84.37988281
2022-10-08T07:31:29.108Z,84.10449219
2022-10-08T07:32:30.615Z,84.28710938
2022-10-08T07:33:24.917Z,84.29882813
2022-10-08T07:34:26.391Z,84.31152344
2022-10-08T07:35:19.777Z,84.1796875
2022-10-08T07:36:19.916Z,84.23828125
2022-10-08T07:37:14.917Z,84.1484375
2022-10-08T07:38:16.184Z,84.19335938
2022-10-08T07:39:13.360Z,83.91210938
2022-10-08T07:40:52.628Z,83.73046875
2022-10-08T07:41:33.262Z,83.484375
2022-10-08T07:43:31.508Z,83.33496094
2022-10-08T07:44:29.768Z,83.421875
2022-10-08T07:45:25.054Z,83.58496094
2022-10-08T07:46:22.550Z,83.33300781
2022-10-08T07:47:21.879Z,83.57421875
2022-10-08T07:48:16.389Z,83.51757813
2022-10-08T07:49:16.623Z,83.45800781
2022-10-08T07:50:11.892Z,83.58007813
2022-10-08T07:51:12.649Z,83.52050781
2022-10-08T07:53:06.848Z,83.32128906
2022-10-08T07:54:02.920Z,83.5234375
2022-10-08T07:55:04.473Z,83.42773438
2022-10-08T07:55:57.097Z,83.46972656
2022-10-08T07:56:56.417Z,83.70800781
2022-10-08T07:57:52.815Z,83.2890625
2022-10-08T07:58:53.332Z,83.19726563
2022-10-08T07:59:55.255Z,83.26464844
2022-10-08T08:00:47.837Z,83.34472656
2022-10-08T08:01:47.417Z,83.34667969
2022-10-08T08:02:42.912Z,83.20019531
2022-10-08T08:03:44.132Z,83.33300781
2022-10-08T08:04:44.339Z,83.05957031
2022-10-08T08:05:46.162Z,82.96972656
2022-10-08T08:06:48.339Z,82.99609375
2022-10-08T08:07:53.481Z,82.63378906
2022-10-08T08:17:06.724Z,77.19335938
2022-10-08T08:17:50.042Z,76.51660156
2022-10-08T08:18:48.284Z,75.84179688
2022-10-08T08:19:48.730Z,75.83789063
2022-10-08T08:20:44.393Z,76.70996094
2022-10-08T08:21:44.900Z,77.27441406
2022-10-08T08:23:41.319Z,78.01269531
2022-10-08T08:24:36.837Z,78.40527344
2022-10-08T08:25:36.601Z,78.76367188
2022-10-08T08:26:32.055Z,78.82324219
2022-10-08T08:28:26.788Z,79.8046875
2022-10-08T08:29:26.631Z,80.02246094
2022-10-08T08:30:25.784Z,80.17285156
2022-10-08T08:31:25.436Z,80.16601563
2022-10-08T08:33:20.184Z,80.76367188
2022-10-08T08:34:15.350Z,80.77148438
2022-10-08T08:35:15.326Z,80.87597656
2022-10-08T08:36:10.194Z,81.22167969
2022-10-08T08:38:05.062Z,81.36328125
2022-10-08T08:39:05.935Z,81.33300781
2022-10-08T08:40:01.264Z,81.26074219
2022-10-08T08:41:01.667Z,81.15917969
2022-10-08T08:42:58.168Z,81.24316406
2022-10-08T08:43:53.817Z,81.23339844
2022-10-08T08:44:56.080Z,80.96679688
2022-10-08T08:45:48.898Z,80.70996094
2022-10-08T08:46:51.274Z,80.77734375
2022-10-08T08:47:45.632Z,80.8828125
2022-10-08T08:48:44.386Z,80.76953125
2022-10-08T08:49:39.832Z,80.8828125
2022-10-08T08:50:46.642Z,80.859375
2022-10-08T08:50:48.850Z,80.859375
2022-10-08T08:51:38.704Z,80.75
2022-10-08T08:52:33.913Z,80.87011719
2022-10-08T08:53:37.645Z,81.00683594
2022-10-08T08:54:30.244Z,81.09765625
2022-10-08T08:55:35.474Z,80.83886719
2022-10-08T08:56:28.861Z,80.16113281
2022-10-08T08:58:24.030Z,80.32714844
2022-10-08T08:59:23.939Z,80.62011719
2022-10-08T09:00:19.191Z,80.6875
2022-10-08T09:01:19.045Z,80.74316406
2022-10-08T09:03:40.244Z,80.74804688
2022-10-08T09:04:20.595Z,80.70214844
2022-10-08T09:05:18.601Z,80.90332031
2022-10-08T09:06:19.165Z,80.79785156
2022-10-08T09:07:14.815Z,80.76855469
2022-10-08T09:08:15.258Z,80.50292969
2022-10-08T09:09:10.938Z,80.3984375
2022-10-08T09:10:11.955Z,80.2890625
2022-10-08T09:11:08.581Z,80.37304688
2022-10-08T09:12:08.975Z,80.12695313
2022-10-08T09:13:04.472Z,79.83398438
2022-10-08T09:14:07.750Z,79.77734375
2022-10-08T09:15:01.731Z,79.83984375
2022-10-08T09:16:04.976Z,79.77734375
2022-10-08T09:17:58.370Z,79.421875
2022-10-08T09:18:54.053Z,79.29003906
2022-10-08T09:19:54.659Z,78.84863281
2022-10-08T09:20:50.870Z,78.89355469
2022-10-08T09:21:50.426Z,79.12402344
2022-10-08T09:22:52.068Z,78.95605469
2022-10-08T09:23:45.522Z,78.98535156
2022-10-08T09:24:48.307Z,79.14550781
2022-10-08T09:25:43.117Z,78.91308594
2022-10-08T09:26:43.695Z,78.86425781
2022-10-08T09:28:40.221Z,78.37988281
2022-10-08T09:29:36.500Z,78.43945313
2022-10-08T09:30:34.679Z,78.23925781
2022-10-08T09:31:35.547Z,78.20605469
2022-10-08T09:33:32.364Z,77.99316406
2022-10-08T09:34:28.419Z,77.8203125
2022-10-08T09:35:28.494Z,77.85742188
2022-10-08T09:36:24.793Z,77.79003906
2022-10-08T09:37:27.494Z,77.94824219
2022-10-08T09:38:20.480Z,77.83203125
2022-10-08T09:39:23.650Z,77.98046875
2022-10-08T09:40:17.992Z,77.58691406
2022-10-08T09:41:20.269Z,77.1484375
2022-10-08T09:43:12.978Z,76.40234375
2022-10-08T09:44:12.091Z,75.58984375
2022-10-08T09:45:07.974Z,75.55566406
2022-10-08T09:46:08.574Z,75.55273438
2022-10-08T09:47:39.216Z,75.59570313
2022-10-08T09:48:18.855Z,76.05175781
2022-10-08T09:49:18.335Z,75.45703125
2022-10-08T09:50:18.286Z,75.59082031
2022-10-08T09:51:14.519Z,75.01757813
2022-10-08T09:52:17.346Z,74.94628906
2022-10-08T09:53:12.051Z,74.48242188
2022-10-08T09:54:13.136Z,73.89257813
2022-10-08T09:55:09.420Z,73.6953125
2022-10-08T09:56:11.017Z,73.26757813
2022-10-08T09:57:07.622Z,73.51660156
2022-10-08T09:58:09.065Z,73.36035156
2022-10-08T09:59:05.717Z,73.3046875
2022-10-08T10:00:07.546Z,73.20214844
2022-10-08T10:01:03.873Z,73.27636719
2022-10-08T10:02:59.553Z,72.06933594
2022-10-08T10:04:00.228Z,72.22265625
2022-10-08T10:04:55.733Z,72.70996094
2022-10-08T10:05:59.296Z,72.60449219
2022-10-08T10:07:54.066Z,71.74511719
2022-10-08T10:08:49.646Z,71.33496094
2022-10-08T10:09:49.810Z,71.96582031
2022-10-08T10:10:45.167Z,71.37109375
2022-10-08T10:11:43.573Z,71.07128906
2022-10-08T10:13:33.036Z,70.18457031
2022-10-08T10:14:35.345Z,69.74316406
2022-10-08T10:15:28.407Z,70.62402344
2022-10-08T10:16:28.444Z,71.11816406
2022-10-08T10:18:24.297Z,71.16601563
2022-10-08T10:19:19.777Z,70.75683594
2022-10-08T10:20:22.386Z,70.87988281
2022-10-08T10:21:16.757Z,71.14550781
2022-10-08T10:22:16.592Z,70.45996094
2022-10-08T10:23:14.560Z,70.78222656
2022-10-08T10:24:14.893Z,70.11621094
2022-10-08T10:25:12.865Z,70.1953125
2022-10-08T10:26:16.511Z,70.21972656
2022-10-08T10:27:10.922Z,70.55957031
2022-10-08T10:28:14.257Z,69.390625
2022-10-08T10:29:08.412Z,68.96679688
2022-10-08T10:30:12.045Z,69.78417969
2022-10-08T10:31:06.648Z,69.45019531
2022-10-08T10:32:14.482Z,69.05957031
2022-10-08T10:33:06.637Z,70.10546875
2022-10-08T10:34:45.550Z,69.46289063
2022-10-08T10:35:25.405Z,70.15722656
2022-10-08T10:36:23.867Z,69.73339844
2022-10-08T10:37:24.461Z,69.38183594
2022-10-08T10:38:20.591Z,68.84277344
2022-10-08T10:39:20.357Z,69.52539063
2022-10-08T10:40:15.585Z,66.3046875
2022-10-08T10:41:15.472Z,66.72363281
2022-10-08T10:42:10.377Z,67.23925781
2022-10-08T10:43:08.441Z,65.80859375
2022-10-08T10:44:08.287Z,66.05078125
2022-10-08T10:45:03.608Z,65.546875
2022-10-08T10:46:03.178Z,65.57910156
2022-10-08T10:46:57.820Z,65.70800781
2022-10-08T10:47:57.492Z,65.6171875
2022-10-08T10:48:52.133Z,64.42285156
2022-10-08T10:49:55.250Z,65.01171875
2022-10-08T10:50:47.789Z,65.63574219
2022-10-08T10:51:47.632Z,66.50976563
2022-10-08T10:52:43.163Z,66.53808594
2022-10-08T10:53:42.695Z,66.88085938
2022-10-08T10:54:40.348Z,66.24804688
2022-10-08T10:55:35.837Z,66.26660156
2022-10-08T10:56:35.894Z,67.01953125
2022-10-08T10:57:31.523Z,65.90039063
2022-10-08T10:58:28.781Z,65.50390625
2022-10-08T10:59:28.811Z,64.73535156
2022-10-08T11:00:24.058Z,63.28125
2022-10-08T11:01:24.076Z,62.58984375
2022-10-08T11:02:19.374Z,61.31542969
2022-10-08T11:03:21.671Z,61.58300781
2022-10-08T11:04:14.224Z,61.83691406
2022-10-08T11:05:16.788Z,62.48144531
2022-10-08T11:06:09.588Z,62.94140625
2022-10-08T11:08:04.981Z,60.55957031
2022-10-08T11:09:07.068Z,59.36816406
2022-10-08T11:09:59.780Z,59.71191406
2022-10-08T11:11:02.365Z,59.93554688
2022-10-08T11:12:57.538Z,60.80761719
2022-10-08T11:13:50.282Z,60.23339844
2022-10-08T11:14:52.797Z,60.10058594
2022-10-08T11:15:46.382Z,58.97558594
2022-10-08T11:16:45.430Z,60.79101563
2022-10-08T11:18:09.517Z,59.90429688
2022-10-08T11:18:50.040Z,60.015625
2022-10-08T11:19:48.610Z,60.11230469
2022-10-08T11:20:49.244Z,60.67578125
2022-10-08T11:21:45.390Z,60.06054688
2022-10-08T11:22:46.189Z,59.62207031
2022-10-08T11:23:41.618Z,59.69335938
2022-10-08T11:24:42.036Z,59.3203125
2022-10-08T11:26:02.711Z,59.46972656
2022-10-08T11:26:09.850Z,59.46972656
2022-10-08T11:26:39.472Z,59.48632813
2022-10-08T11:27:35.456Z,59.59765625
2022-10-08T11:28:36.244Z,59.4609375
2022-10-08T11:29:31.846Z,58.60644531
2022-10-08T11:30:32.484Z,58.67773438
2022-10-08T11:31:28.321Z,58.5859375
2022-10-08T11:33:24.630Z,58.09765625
2022-10-08T11:34:27.949Z,58.625
2022-10-08T11:35:22.055Z,58.61523438
2022-10-08T11:36:22.106Z,58.87011719
2022-10-08T11:37:18.259Z,59.93066406
2022-10-08T11:38:18.577Z,59.79394531
2022-10-08T11:39:14.774Z,57.43261719
2022-10-08T11:40:14.862Z,58.57324219
2022-10-08T11:41:10.772Z,57.98144531
2022-10-08T11:42:11.344Z,59.48339844
2022-10-08T11:43:06.956Z,58.98535156
2022-10-08T11:44:10.080Z,59.17871094
2022-10-08T11:45:04.302Z,57.95898438
2022-10-08T11:46:06.737Z,57.94726563
2022-10-08T11:47:00.229Z,58.1875
2022-10-08T11:48:07.684Z,56.83007813
2022-10-08T11:48:09.934Z,56.83007813
2022-10-08T11:49:01.272Z,56.01367188
2022-10-08T11:49:56.974Z,56.37988281
2022-10-08T11:51:00.501Z,56.15234375
2022-10-08T11:51:53.740Z,56.65332031
2022-10-08T11:53:51.185Z,56.78515625